Latest Weather Observations for Maryborough

IDQ60801

Issued at 7:32 am EST Friday 6 May 2016 (issued every 30 minutes, with the page automatically refreshed every 10 minutes)

About weather observations | Map of weather stations | Latest weather observations for QLD | Other Formats
Station Details ID: 040126 Name: MARYBOROUGH Lat: -25.51 Lon: 152.72 Height: 8.98 m
Data from the previous 72 hours. | See also: Recent months at Maryborough
Date/Time
EST
Temp
°C
App
Temp
°C
Dew
Point
Rel
Hum
%
Delta-T
°C
Wind Press
QNH
hPa
Press
MSL
hPa
Rain
since 9 am
mm
Dir
 
Spd
km/h
Gust
km/h
Spd
kts
Gust
kts
06/07:30am 17.6 18.7 17.0 96 0.4 SW 7 13 4 7 1019.3 - 0.0
06/07:00am 15.6 17.3 15.1 97 0.3 CALM 0 0 0 0 1018.7 - 0.0
06/06:59am 15.6 17.3 15.1 97 0.3 CALM 0 0 0 0 1018.6 - 0.0
06/06:30am 14.4 15.5 13.6 95 0.4 CALM 0 0 0 0 1018.2 - 0.0
06/06:00am 15.1 16.5 14.5 96 0.3 CALM 0 0 0 0 1017.9 1017.9 0.0
06/05:37am 15.1 15.4 14.5 96 0.3 SW 6 7 3 4 1017.7 - 0.0
06/05:30am 15.7 16.3 15.2 97 0.3 SW 6 7 3 4 1017.6 - 0.0
06/05:03am 15.6 15.9 15.1 97 0.3 WSW 7 9 4 5 1017.4 - 0.0
06/05:00am 15.6 15.9 15.1 97 0.3 WSW 7 9 4 5 1017.4 - 0.0
06/04:46am 14.6 14.5 13.8 95 0.4 WSW 7 9 4 5 1017.4 - 0.0
06/04:30am 15.7 16.6 15.1 96 0.3 WSW 4 7 2 4 1017.5 - 0.0
06/04:00am 16.2 16.9 15.7 97 0.3 WSW 6 9 3 5 1017.6 - 0.0
06/03:30am 15.7 16.1 15.2 97 0.3 S 7 9 4 5 1017.5 - 0.0
06/03:18am 15.2 15.5 14.6 96 0.3 S 6 7 3 4 1017.4 - 0.0
06/03:00am 15.1 16.5 14.5 96 0.3 CALM 0 0 0 0 1017.2 1017.2 0.0
06/02:30am 15.1 16.5 14.3 95 0.5 CALM 0 0 0 0 1017.3 - 0.0
06/02:00am 15.9 16.5 15.3 96 0.3 S 6 6 3 3 1017.7 - 0.0
06/01:30am 16.0 16.6 15.2 95 0.5 S 6 7 3 4 1017.9 - 0.0
06/01:00am 16.2 16.7 15.1 93 0.6 S 6 9 3 5 1018.2 - 0.0
06/12:52am 16.2 16.8 15.2 94 0.6 S 6 9 3 5 1018.1 - 0.0
06/12:30am 16.5 16.9 15.4 93 0.6 S 7 9 4 5 1018.3 - 0.0
06/12:00am 16.8 17.5 15.7 93 0.6 S 6 7 3 4 1018.5 1018.5 0.0
 
Date/Time
EST
Temp
°C
App
Temp
°C
Dew
Point
Rel
Hum
%
Delta-T
°C
Wind Press
QNH
hPa
Press
MSL
hPa
Rain
since 9 am
mm
Dir
 
Spd
km/h
Gust
km/h
Spd
kts
Gust
kts
05/11:30pm 17.0 17.8 15.9 93 0.6 S 6 7 3 4 1018.6 - 0.0
05/11:00pm 17.2 18.5 16.1 93 0.7 S 4 7 2 4 1018.7 - 0.0
05/10:30pm 17.7 18.6 16.6 93 0.7 ESE 7 9 4 5 1018.7 - 0.0
05/10:00pm 18.1 19.2 17.1 94 0.6 ESE 7 7 4 4 1018.8 - 0.0
05/09:30pm 18.0 19.2 16.9 93 0.7 ESE 6 7 3 4 1019.0 - 0.0
05/09:00pm 18.0 18.9 16.7 92 0.8 ESE 7 7 4 4 1019.1 1019.1 0.0
05/08:30pm 18.2 19.3 16.7 91 0.9 ESE 6 7 3 4 1019.1 - 0.0
05/08:00pm 18.4 19.5 16.7 90 1.0 ESE 6 7 3 4 1019.1 - 0.0
05/07:30pm 18.3 19.1 15.9 86 1.4 ESE 6 7 3 4 1018.8 - 0.0
05/07:00pm 19.4 20.6 16.8 85 1.6 ESE 6 6 3 3 1018.5 - 0.0
05/06:30pm 19.3 20.2 16.2 82 1.9 ESE 6 7 3 4 1018.2 - 0.0
05/06:00pm 20.5 21.2 16.1 76 2.6 ESE 7 7 4 4 1017.8 1017.8 0.0
05/05:30pm 22.3 22.8 16.6 70 3.5 ESE 9 13 5 7 1017.4 - 0.0
05/05:00pm 23.6 23.5 16.9 66 4.1 ESE 13 22 7 12 1017.3 - 0.0
05/04:30pm 24.5 23.7 17.0 63 4.6 ESE 17 24 9 13 1017.1 - 0.0
05/04:00pm 25.5 24.2 17.2 60 5.2 ESE 20 30 11 16 1016.9 - 0.0
05/03:30pm 26.1 25.0 17.2 58 5.5 SE 19 28 10 15 1016.8 - 0.0
05/03:00pm 26.6 24.9 16.2 52 6.4 ESE 20 32 11 17 1016.8 1016.8 0.0
05/02:30pm 27.0 25.8 16.0 51 6.8 ESE 17 28 9 15 1016.8 - 0.0
05/02:00pm 27.1 25.4 15.8 50 6.9 ESE 19 30 10 16 1017.0 - 0.0
05/01:30pm 27.3 25.9 15.6 48 7.1 E 17 28 9 15 1017.0 - 0.0
05/01:00pm 27.5 25.9 16.1 49 7.0 SE 19 26 10 14 1017.2 - 0.0
05/12:30pm 27.3 26.5 17.2 54 6.3 SE 17 24 9 13 1017.7 - 0.0
05/12:00pm 27.3 26.4 16.9 53 6.5 ESE 17 26 9 14 1018.2 1018.2 0.0
05/11:30am 25.2 24.5 16.3 57 5.5 SE 15 22 8 12 1018.8 - 0.0
05/11:00am 27.0 27.3 18.8 60 5.3 SE 15 22 8 12 1019.2 - 0.0
05/10:30am 26.1 25.8 18.2 61 5.0 SSE 17 22 9 12 1019.6 - 0.0
05/10:00am 24.9 24.7 17.6 64 4.6 S 15 22 8 12 1019.9 - 0.0
05/09:30am 23.6 23.6 17.1 67 4.0 S 13 19 7 10 1020.2 - 0.0
05/09:00am 22.6 22.7 17.5 73 3.1 S 13 17 7 9 1020.1 1020.1 0.0
05/08:30am 20.5 19.8 16.3 77 2.5 S 15 19 8 10 1020.1 - 0.0
05/08:00am 19.5 19.5 16.2 81 2.0 S 11 15 6 8 1020.1 - 0.0
05/07:30am 17.4 17.5 15.4 88 1.2 SSW 9 15 5 8 1019.7 - 0.0
05/07:00am 15.5 15.8 15.0 97 0.3 SSW 7 9 4 5 1019.2 - 0.0
05/06:42am 13.8 14.7 12.9 94 0.5 CALM 0 0 0 0 1019.0 - 0.0
05/06:30am 13.7 14.6 12.8 94 0.5 CALM 0 0 0 0 1018.8 - 0.0
05/06:20am 13.8 14.7 12.9 94 0.5 CALM 0 0 0 0 1018.7 - 0.0
05/06:00am 13.8 14.7 12.9 94 0.5 CALM 0 0 0 0 1018.4 1018.4 0.0
05/05:30am 13.9 13.6 12.8 93 0.6 SSW 6 6 3 3 1018.2 - 0.0
05/05:00am 14.1 13.9 13.1 94 0.6 SSW 6 7 3 4 1017.9 - 0.0
05/04:30am 14.3 14.0 13.2 93 0.6 SSW 7 7 4 4 1017.8 - 0.0
05/04:00am 14.1 13.6 12.8 92 0.7 SSW 7 9 4 5 1017.6 - 0.0
05/03:30am 14.4 15.0 13.1 92 0.7 SSW 2 7 1 4 1017.4 - 0.0
05/03:00am 14.8 15.1 13.5 92 0.7 SSW 4 6 2 3 1017.2 1017.2 0.0
05/02:30am 15.2 16.4 13.9 92 0.7 CALM 0 0 0 0 1017.2 - 0.0
05/02:00am 15.3 16.6 14.0 92 0.7 CALM 0 0 0 0 1017.4 - 0.0
05/01:30am 15.2 16.3 13.4 89 1.0 CALM 0 0 0 0 1017.5 - 0.0
05/01:00am 15.7 16.9 13.9 89 1.0 CALM 0 0 0 0 1017.7 - 0.0
05/12:30am 16.0 15.9 14.0 88 1.1 SSW 7 9 4 5 1017.8 - 0.0
05/12:00am 16.2 15.4 14.0 87 1.2 S 11 13 6 7 1017.9 1017.9 0.0
 
Date/Time
EST
Temp
°C
App
Temp
°C
Dew
Point
Rel
Hum
%
Delta-T
°C
Wind Press
QNH
hPa
Press
MSL
hPa
Rain
since 9 am
mm
Dir
 
Spd
km/h
Gust
km/h
Spd
kts
Gust
kts
04/11:30pm 16.4 15.7 14.2 87 1.3 S 11 15 6 8 1018.1 - 0.0
04/11:00pm 16.3 15.7 13.6 84 1.5 S 9 11 5 6 1018.3 - 0.0
04/10:30pm 16.8 16.7 13.9 83 1.6 S 7 9 4 5 1018.4 - 0.0
04/10:00pm 16.8 16.0 14.1 84 1.5 S 11 11 6 6 1018.5 - 0.0
04/09:30pm 17.2 16.9 14.5 84 1.6 S 9 11 5 6 1018.4 - 0.0
04/09:00pm 16.3 17.4 13.6 84 1.5 CALM 0 0 0 0 1018.4 1018.4 0.0
04/08:30pm 16.5 17.6 13.4 82 1.7 CALM 0 0 0 0 1018.3 - 0.0
04/08:00pm 16.8 17.7 12.9 78 2.2 CALM 0 0 0 0 1017.9 - 0.0
04/07:30pm 17.6 18.7 13.5 77 2.3 CALM 0 0 0 0 1017.4 - 0.0
04/07:00pm 18.2 19.2 13.1 72 2.9 CALM 0 0 0 0 1017.0 - 0.0
04/06:30pm 19.0 19.8 12.5 66 3.6 CALM 0 7 0 4 1016.4 - 0.0
04/06:00pm 21.2 20.4 12.9 59 4.7 ESE 9 13 5 7 1015.9 1015.9 0.0
04/05:30pm 22.0 21.6 13.1 57 5.1 E 7 11 4 6 1015.4 - 0.0
04/05:00pm 23.7 22.1 13.8 53 5.8 ESE 15 22 8 12 1015.2 - 0.0
04/04:30pm 25.4 25.1 14.5 51 6.5 ESE 9 15 5 8 1014.8 - 0.0
04/04:00pm 25.7 25.5 14.8 51 6.5 E 9 13 5 7 1014.5 - 0.0
04/03:30pm 26.6 26.5 15.0 49 7.0 ESE 9 15 5 8 1014.3 - 0.0
04/03:00pm 26.9 26.3 14.6 46 7.4 SE 11 17 6 9 1014.0 1014.0 0.0
04/02:30pm 27.1 26.1 12.3 39 8.6 SSE 9 13 5 7 1013.9 - 0.0
04/02:00pm 27.4 27.4 15.1 47 7.5 SE 9 15 5 8 1014.0 - 0.0
04/01:30pm 26.8 25.8 14.5 46 7.4 S 13 17 7 9 1014.1 - 0.0
04/01:00pm 27.5 26.0 14.2 44 8.0 SSW 15 20 8 11 1014.1 - 0.0
04/12:30pm 28.0 25.9 14.6 44 8.1 SSW 19 28 10 15 1014.2 - 0.0
04/12:00pm 28.0 27.0 16.6 50 7.1 SSW 17 24 9 13 1014.7 1014.7 0.0
04/11:30am 26.7 26.7 17.2 56 5.9 SSW 13 17 7 9 1015.0 - 0.0
04/11:00am 26.2 26.6 18.1 61 5.1 S 13 17 7 9 1015.6 - 0.0
04/10:30am 24.8 24.7 17.8 65 4.4 S 15 20 8 11 1015.9 - 0.0
04/10:00am 23.2 22.7 17.9 72 3.3 S 17 22 9 12 1016.2 - 0.0
04/09:30am 22.9 23.2 18.0 74 3.1 S 13 19 7 10 1017.1 - 0.0
04/09:00am 22.7 24.8 19.3 81 2.2 SW 7 11 4 6 1016.9 1016.9 0.8
04/08:30am 21.9 24.0 19.3 85 1.7 SSW 7 9 4 5 1016.8 - 0.8
04/08:00am 21.6 25.6 20.6 94 0.6 CALM 0 0 0 0 1016.5 - 0.8
04/07:30am 21.0 24.6 19.8 93 0.8 CALM 0 2 0 1 1016.1 - 0.8
04/07:00am 21.1 23.7 20.4 96 0.5 WSW 7 9 4 5 1015.8 - 0.8
04/06:54am 20.9 23.4 20.2 96 0.4 SSW 7 9 4 5 1015.6 - 0.8
04/06:30am 20.8 24.5 20.0 95 0.5 CALM 0 0 0 0 1015.1 - 0.0
04/06:24am 20.8 24.5 20.0 95 0.5 CALM 0 0 0 0 1014.9 - 0.0
04/06:00am 20.7 22.9 19.7 94 0.6 SSW 7 11 4 6 1014.6 1014.6 0.0
04/05:30am 20.7 23.3 20.0 96 0.4 SW 6 7 3 4 1013.9 - 0.0
04/05:00am 21.3 25.4 20.8 97 0.3 CALM 0 0 0 0 1013.6 - 0.0
04/04:30am 21.4 25.2 20.9 97 0.3 SW 2 6 1 3 1013.3 - 0.0
04/04:00am 21.0 25.0 20.5 97 0.3 CALM 0 0 0 0 1013.1 - 0.0
04/03:30am 20.8 24.7 20.3 97 0.3 CALM 0 0 0 0 1013.0 - 0.0
04/03:00am 20.0 23.3 19.0 94 0.6 CALM 0 0 0 0 1012.9 1012.9 0.0
04/02:30am 21.3 24.5 20.6 96 0.5 WSW 4 6 2 3 1012.9 - 0.0
04/02:00am 21.0 24.4 20.2 95 0.5 WSW 2 7 1 4 1013.1 - 0.0
04/01:30am 21.3 25.2 20.3 94 0.6 CALM 0 0 0 0 1013.1 - 0.0
04/01:00am 21.2 24.8 19.8 92 0.9 CALM 0 0 0 0 1013.2 - 0.0
04/12:30am 21.6 25.4 20.2 92 0.9 CALM 0 0 0 0 1013.4 - 0.0
04/12:24am 21.8 25.7 20.4 92 0.9 CALM 0 0 0 0 1013.5 - 0.0
04/12:06am 21.8 25.7 20.3 91 1.0 CALM 0 0 0 0 1013.6 - 0.0
04/12:00am 21.8 25.7 20.3 91 1.0 CALM 0 0 0 0 1013.7 1013.7 0.0
 
Date/Time
EST
Temp
°C
App
Temp
°C
Dew
Point
Rel
Hum
%
Delta-T
°C
Wind Press
QNH
hPa
Press
MSL
hPa
Rain
since 9 am
mm
Dir
 
Spd
km/h
Gust
km/h
Spd
kts
Gust
kts
03/11:52pm 21.8 25.7 20.3 91 1.0 CALM 0 0 0 0 1013.7 - 0.0
03/11:30pm 22.0 25.9 20.3 90 1.1 CALM 0 0 0 0 1013.6 - 0.0
03/11:00pm 22.4 26.3 20.3 88 1.4 CALM 0 4 0 2 1013.6 - 0.0
03/10:30pm 23.1 26.1 20.8 87 1.5 SW 6 7 3 4 1013.7 - 0.0
03/10:00pm 23.1 26.0 20.6 86 1.6 WNW 6 9 3 5 1013.8 - 0.0
03/09:30pm 23.3 25.3 20.8 86 1.6 NNW 11 13 6 7 1013.6 - 0.0
03/09:00pm 23.2 25.3 20.9 87 1.5 NNW 11 15 6 8 1013.7 1013.7 0.0
03/08:30pm 23.1 25.5 20.8 87 1.5 NNW 9 13 5 7 1013.6 - 0.0
03/08:00pm 22.9 25.2 20.6 87 1.5 N 9 11 5 6 1013.6 - 0.0
03/07:30pm 23.0 25.6 20.5 86 1.6 N 7 9 4 5 1013.2 - 0.0
03/07:00pm 23.5 26.3 20.4 83 2.0 N 6 7 3 4 1012.9 - 0.0
03/06:30pm 23.8 26.3 20.3 81 2.3 N 7 11 4 6 1012.4 - 0.0
03/06:00pm 23.9 26.2 19.8 78 2.6 N 7 13 4 7 1012.0 1012.0 0.0
03/05:30pm 24.5 26.8 19.8 75 3.0 NNE 7 11 4 6 1011.6 - 0.0
03/05:00pm 25.6 27.8 19.5 69 3.9 N 7 9 4 5 1011.4 - 0.0
03/04:30pm 26.6 27.8 19.0 63 4.9 N 11 15 6 8 1011.2 - 0.0
03/04:00pm 27.9 28.5 17.7 53 6.4 W 11 15 6 8 1011.0 - 0.0
03/03:30pm 28.1 27.6 17.0 51 6.9 W 15 20 8 11 1011.0 - 0.0
03/03:00pm 28.1 28.5 17.3 52 6.8 W 11 19 6 10 1010.9 1010.9 0.0
03/02:30pm 28.3 28.9 17.8 53 6.7 W 11 19 6 10 1010.9 - 0.0
03/02:00pm 28.1 28.4 17.9 54 6.5 WNW 13 20 7 11 1011.1 - 0.0
03/01:30pm 28.6 30.0 19.5 58 5.9 WNW 11 19 6 10 1011.4 - 0.0
03/01:00pm 28.1 29.2 18.8 57 6.0 W 11 19 6 10 1011.9 - 0.0
03/12:30pm 27.4 28.5 18.9 59 5.5 WNW 11 17 6 9 1012.3 - 0.0
03/12:00pm 26.7 28.9 20.3 68 4.2 WNW 9 13 5 7 1013.0 1013.0 0.0
03/11:30am 26.1 28.7 20.0 69 4.0 WNW 6 11 3 6 1013.4 - 0.0
03/11:00am 25.2 27.4 19.6 71 3.6 W 7 11 4 6 1014.0 - 0.0
03/10:30am 25.2 27.9 20.2 74 3.3 SSW 6 11 3 6 1014.4 - 0.0
03/10:00am 24.5 26.8 19.8 75 3.0 NNW 7 11 4 6 1014.7 - 0.0
03/09:30am 24.1 27.5 20.2 79 2.5 N 2 7 1 4 1015.1 - 0.0
03/09:00am 24.3 28.2 21.2 83 2.0 N 2 6 1 3 1015.1 1015.1 0.8
03/08:30am 23.4 27.6 20.9 86 1.6 CALM 0 0 0 0 1015.1 - 0.8
03/08:00am 22.8 26.0 21.3 91 1.0 NW 6 7 3 4 1015.0 - 0.8

Other Formats:

Comma delimited format used in spreadsheet applications
http://www.bom.gov.au/fwo/IDQ60801/IDQ60801.94567.axf

JavaScript Object Notation format (JSON) in row-major order
http://www.bom.gov.au/fwo/IDQ60801/IDQ60801.94567.json